Terminal Aerodrome Forecast
Issued by NWS

Home | Current Version | Previous Version | Text Only | Print | Product List | Glossary On
Versions: 1 2 3 4 5 6 7 8 9 10 11 12 13
000
FTUS41 KBTV 251726
TAFRUT
TAF
KRUT 251726Z 2518/2618 15013G20KT P6SM -SHRA BKN015 OVC022
     FM260700 VRB04KT P6SM -SHRA OVC012
     FM261000 24005KT 5SM -SHRA BR OVC008
     FM261400 26008KT 6SM -SHRA BR OVC015
     FM261600 26010KT P6SM VCSH BKN025=

USA.gov is the U.S. government's official web portal to all federal, state and local government web resources and services.